West Lebanon, New York
Current Conditions -  °F | °C
As of 11:54 PM on Thursday 30 Oct 2014 (Local Time) from KPSF Reporting Station
Clear Clear  
Wind Chill: 35°   Ceiling: Unl
Heat Index: 35°   Visibility: 10mi
Dew Point: 31°   Wind: 3mph
Humidity: 85%   Direction: 270°W
Pressure: 30"   Gusts: NA
Location:  42.49°N, 73.47°W
Report Text: KPSF 310354Z AUTO 27003KT 10SM CLR 02/M01 A3000 RMK AO2 SLP158 T00171006
Loading
Personal Weather Stations






























Interactive Weather Map
Tropical Storm Tracking
New forecast layout! Learn more

10-Day Weather Forecast

Advertisements
Track Severe Weather on mobile